createdAt,value
2023-01-07T00:01:27.307Z,-69
2023-01-07T00:03:53.820Z,-69
2023-01-07T00:06:20.334Z,-69
2023-01-07T00:08:46.814Z,-69
2023-01-07T00:11:13.310Z,-69
2023-01-07T00:13:39.781Z,-69
2023-01-07T00:16:06.313Z,-70
2023-01-07T00:18:34.492Z,-69
2023-01-07T00:21:00.988Z,-69
2023-01-07T00:23:27.503Z,-69
2023-01-07T00:25:53.977Z,-69
2023-01-07T00:28:20.451Z,-69
2023-01-07T00:30:46.921Z,-69
2023-01-07T00:33:13.411Z,-69
2023-01-07T00:35:39.899Z,-69
2023-01-07T00:38:06.381Z,-70
2023-01-07T00:40:32.860Z,-70
2023-01-07T00:42:59.347Z,-69
2023-01-07T00:45:25.846Z,-69
2023-01-07T00:47:52.331Z,-69
2023-01-07T00:50:18.793Z,-69
2023-01-07T00:52:45.272Z,-69
2023-01-07T00:55:11.761Z,-70
2023-01-07T00:57:38.243Z,-69
2023-01-07T01:00:04.756Z,-69
2023-01-07T01:02:31.317Z,-69
2023-01-07T01:04:57.829Z,-69
2023-01-07T01:07:24.291Z,-69
2023-01-07T01:09:50.783Z,-69
2023-01-07T01:12:17.274Z,-69
2023-01-07T01:14:43.759Z,-69
2023-01-07T01:17:10.236Z,-69
2023-01-07T01:19:36.739Z,-69
2023-01-07T01:22:03.216Z,-70
2023-01-07T01:24:29.713Z,-70
2023-01-07T01:26:56.189Z,-69
2023-01-07T01:29:22.649Z,-69
2023-01-07T01:31:49.144Z,-69
2023-01-07T01:34:15.635Z,-69
2023-01-07T01:36:42.107Z,-70
2023-01-07T01:39:08.602Z,-69
2023-01-07T01:41:35.067Z,-69
2023-01-07T01:44:01.545Z,-69
2023-01-07T01:46:28.047Z,-69
2023-01-07T01:48:54.538Z,-69
2023-01-07T01:51:21.002Z,-69
2023-01-07T01:53:47.491Z,-69
2023-01-07T01:56:13.983Z,-69
2023-01-07T01:58:40.505Z,-69
2023-01-07T02:01:07.019Z,-69
2023-01-07T02:03:33.517Z,-69
2023-01-07T02:05:59.997Z,-69
2023-01-07T02:08:26.512Z,-69
2023-01-07T02:10:53.004Z,-69
2023-01-07T02:13:19.499Z,-69
2023-01-07T02:15:45.996Z,-69
2023-01-07T02:18:12.453Z,-69
2023-01-07T02:20:38.937Z,-69
2023-01-07T02:23:05.396Z,-69
2023-01-07T02:25:31.873Z,-69
2023-01-07T02:27:58.336Z,-69
2023-01-07T02:30:24.806Z,-69
2023-01-07T02:32:51.259Z,-69
2023-01-07T02:35:17.740Z,-69
2023-01-07T02:37:44.216Z,-69
2023-01-07T02:40:10.696Z,-69
2023-01-07T02:42:37.157Z,-69
2023-01-07T02:45:03.623Z,-69
2023-01-07T02:47:30.097Z,-69
2023-01-07T02:49:58.589Z,-69
2023-01-07T02:52:25.086Z,-69
2023-01-07T02:54:51.587Z,-69
2023-01-07T02:57:18.061Z,-69
2023-01-07T02:59:44.550Z,-69
2023-01-07T03:02:11.025Z,-69
2023-01-07T03:04:37.495Z,-69
2023-01-07T03:07:03.948Z,-69
2023-01-07T03:09:30.413Z,-69
2023-01-07T03:11:56.881Z,-69
2023-01-07T03:14:23.341Z,-69
2023-01-07T03:16:49.849Z,-69
2023-01-07T03:19:16.368Z,-69
2023-01-07T03:21:42.834Z,-69
2023-01-07T03:24:09.310Z,-69
2023-01-07T03:26:35.788Z,-69
2023-01-07T03:29:02.250Z,-69
2023-01-07T03:31:28.728Z,-69
2023-01-07T03:33:55.213Z,-69
2023-01-07T03:36:21.696Z,-69
2023-01-07T03:38:48.164Z,-69
2023-01-07T03:41:14.651Z,-69
2023-01-07T03:43:41.132Z,-69
2023-01-07T03:46:07.663Z,-69
2023-01-07T03:48:34.164Z,-69
2023-01-07T03:51:00.652Z,-69
2023-01-07T03:53:27.114Z,-69
2023-01-07T03:55:53.592Z,-69
2023-01-07T03:58:20.064Z,-69
2023-01-07T04:00:46.560Z,-69
2023-01-07T04:03:13.046Z,-69
2023-01-07T04:05:39.518Z,-69
2023-01-07T04:08:06.001Z,-69
2023-01-07T04:10:32.485Z,-69
2023-01-07T04:12:58.966Z,-69
2023-01-07T04:15:25.447Z,-69
2023-01-07T04:17:51.906Z,-69
2023-01-07T04:20:18.379Z,-69
2023-01-07T04:22:44.853Z,-69
2023-01-07T04:25:11.348Z,-69
2023-01-07T04:27:37.817Z,-69
2023-01-07T04:30:04.285Z,-69
2023-01-07T04:32:30.745Z,-69
2023-01-07T04:34:57.212Z,-69
2023-01-07T04:37:23.711Z,-69
2023-01-07T04:39:50.184Z,-69
2023-01-07T04:42:16.652Z,-69
2023-01-07T04:44:43.122Z,-69
2023-01-07T04:47:09.616Z,-69
2023-01-07T04:49:36.079Z,-69
2023-01-07T04:52:02.569Z,-69
2023-01-07T04:54:29.032Z,-69
2023-01-07T04:56:55.512Z,-69
2023-01-07T04:59:21.983Z,-69
2023-01-07T05:01:48.558Z,-69
2023-01-07T05:04:15.145Z,-69
2023-01-07T05:06:41.702Z,-69
2023-01-07T05:09:08.184Z,-69
2023-01-07T05:11:34.652Z,-69
2023-01-07T05:14:01.130Z,-69
2023-01-07T05:16:27.663Z,-69
2023-01-07T05:18:54.141Z,-69
2023-01-07T05:21:20.615Z,-69
2023-01-07T05:23:47.086Z,-69
2023-01-07T05:26:13.564Z,-69
2023-01-07T05:28:40.031Z,-69
2023-01-07T05:31:06.574Z,-69
2023-01-07T05:33:33.155Z,-69
2023-01-07T05:35:59.646Z,-69
2023-01-07T05:38:26.140Z,-69
2023-01-07T05:40:52.641Z,-70
2023-01-07T05:43:19.105Z,-69
2023-01-07T05:45:45.640Z,-69
2023-01-07T05:48:12.252Z,-69
2023-01-07T05:50:38.754Z,-69
2023-01-07T05:53:05.238Z,-69
2023-01-07T05:55:31.748Z,-69
2023-01-07T05:57:58.235Z,-69
2023-01-07T06:00:24.722Z,-69
2023-01-07T06:02:51.196Z,-69
2023-01-07T06:05:17.675Z,-68
2023-01-07T06:07:44.154Z,-68
2023-01-07T06:10:10.633Z,-70
2023-01-07T06:12:37.132Z,-68
2023-01-07T06:15:03.632Z,-68
2023-01-07T06:17:30.124Z,-69
2023-01-07T06:19:56.592Z,-68
2023-01-07T06:22:23.078Z,-69
2023-01-07T06:24:49.542Z,-69
2023-01-07T06:27:16.025Z,-69
2023-01-07T06:29:42.492Z,-69
2023-01-07T06:32:08.965Z,-69
2023-01-07T06:34:35.421Z,-69
2023-01-07T06:37:01.886Z,-69
2023-01-07T06:39:28.365Z,-69
2023-01-07T06:41:54.845Z,-69
2023-01-07T06:44:21.315Z,-69
2023-01-07T06:46:47.795Z,-69
2023-01-07T06:49:14.269Z,-69
2023-01-07T06:51:40.739Z,-69
2023-01-07T06:54:07.215Z,-69
2023-01-07T06:56:33.692Z,-69
2023-01-07T06:59:00.178Z,-69
2023-01-07T07:01:26.781Z,-69
2023-01-07T07:03:53.302Z,-69
2023-01-07T07:06:19.797Z,-69
2023-01-07T07:08:46.265Z,-69
2023-01-07T07:11:12.743Z,-69
2023-01-07T07:13:39.239Z,-69
2023-01-07T07:16:05.744Z,-69
2023-01-07T07:18:32.241Z,-69
2023-01-07T07:20:58.723Z,-69
2023-01-07T07:23:25.203Z,-69
2023-01-07T07:25:51.683Z,-69
2023-01-07T07:28:18.216Z,-69
2023-01-07T07:30:47.764Z,-69
2023-01-07T07:33:14.669Z,-69
2023-01-07T07:35:41.250Z,-69
2023-01-07T07:38:07.729Z,-69
2023-01-07T07:40:34.200Z,-69
2023-01-07T07:43:11.383Z,-69
2023-01-07T07:45:39.024Z,-69
2023-01-07T07:48:05.524Z,-69
2023-01-07T07:50:31.995Z,-69
2023-01-07T07:52:58.481Z,-69
2023-01-07T07:55:26.332Z,-69
2023-01-07T07:57:53.176Z,-69
2023-01-07T08:00:19.633Z,-69
2023-01-07T08:02:46.098Z,-69
2023-01-07T08:05:12.571Z,-69
2023-01-07T08:07:39.067Z,-69
2023-01-07T08:10:05.541Z,-69
2023-01-07T08:12:32.015Z,-69
2023-01-07T08:14:58.475Z,-69
2023-01-07T08:17:24.951Z,-69
2023-01-07T08:19:51.421Z,-69
2023-01-07T08:22:17.924Z,-69
2023-01-07T08:24:44.389Z,-69
2023-01-07T08:27:10.866Z,-69
2023-01-07T08:29:37.325Z,-70
2023-01-07T08:32:03.777Z,-70
2023-01-07T08:34:30.247Z,-69
2023-01-07T08:36:56.727Z,-69
2023-01-07T08:39:23.212Z,-70
2023-01-07T08:41:49.683Z,-69
2023-01-07T08:44:16.166Z,-69
2023-01-07T08:46:42.700Z,-70
2023-01-07T08:49:09.213Z,-70
2023-01-07T08:51:35.708Z,-69
2023-01-07T08:54:02.193Z,-69
2023-01-07T08:56:28.659Z,-69
2023-01-07T08:58:55.143Z,-69
2023-01-07T09:01:21.754Z,-70
2023-01-07T09:03:48.340Z,-69
2023-01-07T09:06:14.804Z,-69
2023-01-07T09:08:41.294Z,-69
2023-01-07T09:11:07.750Z,-69
2023-01-07T09:13:34.233Z,-69
2023-01-07T09:16:00.766Z,-69
2023-01-07T09:18:27.318Z,-69
2023-01-07T09:20:53.792Z,-69
2023-01-07T09:23:20.268Z,-69
2023-01-07T09:25:46.745Z,-69
2023-01-07T09:28:13.216Z,-70
2023-01-07T09:30:39.687Z,-69
2023-01-07T09:33:06.161Z,-69
2023-01-07T09:35:32.639Z,-69
2023-01-07T09:37:59.137Z,-69
2023-01-07T09:40:25.599Z,-70
2023-01-07T09:42:52.063Z,-70
2023-01-07T09:45:18.563Z,-69
2023-01-07T09:47:45.031Z,-70
2023-01-07T09:50:11.528Z,-69
2023-01-07T09:52:37.999Z,-69
2023-01-07T09:55:04.507Z,-70
2023-01-07T09:57:30.979Z,-70
2023-01-07T09:59:57.487Z,-69
2023-01-07T10:02:24.002Z,-70
2023-01-07T10:04:50.557Z,-69
2023-01-07T10:07:17.025Z,-70
2023-01-07T10:09:43.531Z,-70
2023-01-07T10:12:10.010Z,-70
2023-01-07T10:14:36.475Z,-70
2023-01-07T10:17:02.954Z,-69
2023-01-07T10:19:29.437Z,-69
2023-01-07T10:21:55.904Z,-70
2023-01-07T10:24:22.393Z,-69
2023-01-07T10:26:48.887Z,-70
2023-01-07T10:29:15.376Z,-69
2023-01-07T10:31:41.914Z,-70
2023-01-07T10:34:08.391Z,-70
2023-01-07T10:36:34.899Z,-69
2023-01-07T10:39:01.413Z,-69
2023-01-07T10:41:27.867Z,-69
2023-01-07T10:43:54.346Z,-69
2023-01-07T10:46:20.887Z,-69
2023-01-07T10:48:48.499Z,-69
2023-01-07T10:51:14.972Z,-69
2023-01-07T10:53:41.457Z,-69
2023-01-07T10:56:07.957Z,-70
2023-01-07T10:58:34.421Z,-70
2023-01-07T11:01:00.972Z,-70
2023-01-07T11:03:27.538Z,-69
2023-01-07T11:05:54.015Z,-69
2023-01-07T11:08:20.497Z,-69
2023-01-07T11:10:46.974Z,-69
2023-01-07T11:13:13.437Z,-69
2023-01-07T11:15:39.926Z,-69
2023-01-07T11:18:06.383Z,-69
2023-01-07T11:20:32.863Z,-69
2023-01-07T11:22:59.344Z,-69
2023-01-07T11:25:25.800Z,-69
2023-01-07T11:27:52.290Z,-69
2023-01-07T11:30:18.769Z,-69
2023-01-07T11:32:45.276Z,-69
2023-01-07T11:35:11.762Z,-69
2023-01-07T11:37:38.318Z,-69
2023-01-07T11:40:04.812Z,-69
2023-01-07T11:42:31.297Z,-69
2023-01-07T11:44:57.755Z,-69
2023-01-07T11:47:24.233Z,-69
2023-01-07T11:49:50.719Z,-69
2023-01-07T11:52:17.201Z,-69
2023-01-07T11:54:43.688Z,-69
2023-01-07T11:57:10.175Z,-69
2023-01-07T11:59:36.658Z,-69
2023-01-07T12:02:03.186Z,-69
2023-01-07T12:04:29.727Z,-70
2023-01-07T12:06:56.209Z,-69
2023-01-07T12:09:23.020Z,-69
2023-01-07T12:11:49.511Z,-69
2023-01-07T12:14:15.992Z,-69
2023-01-07T12:16:42.535Z,-70
2023-01-07T12:19:09.098Z,-69
2023-01-07T12:21:35.581Z,-69
2023-01-07T12:24:02.062Z,-69
2023-01-07T12:26:28.566Z,-69
2023-01-07T12:28:55.046Z,-71
2023-01-07T12:31:21.642Z,-69
2023-01-07T12:33:48.184Z,-69
2023-01-07T12:36:14.670Z,-69
2023-01-07T12:38:41.134Z,-69
2023-01-07T12:41:07.601Z,-69
2023-01-07T12:43:34.054Z,-69
2023-01-07T12:46:00.780Z,-69
2023-01-07T12:48:27.332Z,-69
2023-01-07T12:50:53.799Z,-69
2023-01-07T12:53:20.273Z,-69
2023-01-07T12:55:46.734Z,-69
2023-01-07T12:58:13.218Z,-69
2023-01-07T13:00:39.715Z,-69
2023-01-07T13:03:06.189Z,-69
2023-01-07T13:05:32.656Z,-69
2023-01-07T13:07:59.152Z,-69
2023-01-07T13:10:25.633Z,-69
2023-01-07T13:12:52.122Z,-69
2023-01-07T13:15:18.591Z,-69
2023-01-07T13:17:45.078Z,-69
2023-01-07T13:20:11.628Z,-69
2023-01-07T13:22:38.119Z,-71
2023-01-07T13:25:04.613Z,-71
2023-01-07T13:27:31.101Z,-71
2023-01-07T13:29:57.553Z,-68
2023-01-07T13:32:24.139Z,-71
2023-01-07T13:34:50.619Z,-71
2023-01-07T13:37:17.123Z,-71
2023-01-07T13:39:47.142Z,-71
2023-01-07T13:42:14.485Z,-70
2023-01-07T13:44:41.684Z,-70
2023-01-07T13:47:08.164Z,-71
2023-01-07T13:49:34.647Z,-71
2023-01-07T13:52:01.102Z,-70
2023-01-07T13:54:27.567Z,-71
2023-01-07T13:56:54.044Z,-71
2023-01-07T13:59:20.514Z,-70
2023-01-07T14:01:47.079Z,-70
2023-01-07T14:04:13.638Z,-70
2023-01-07T14:06:40.128Z,-71
2023-01-07T14:09:06.611Z,-70
2023-01-07T14:11:33.094Z,-70
2023-01-07T14:13:59.577Z,-76
2023-01-07T14:16:26.101Z,-76
2023-01-07T14:18:52.630Z,-77
2023-01-07T14:21:19.129Z,-77
2023-01-07T14:23:45.607Z,-77
2023-01-07T14:26:12.108Z,-76
2023-01-07T14:28:38.595Z,-76
2023-01-07T14:31:05.118Z,-77
2023-01-07T14:33:31.677Z,-77
2023-01-07T14:35:58.161Z,-77
2023-01-07T14:38:27.397Z,-76
2023-01-07T14:40:53.880Z,-77
2023-01-07T14:43:20.365Z,-77
2023-01-07T14:45:46.834Z,-77
2023-01-07T14:48:13.322Z,-76
2023-01-07T14:50:39.782Z,-77
2023-01-07T14:53:06.237Z,-77
2023-01-07T14:55:32.706Z,-77
2023-01-07T14:57:59.178Z,-76
2023-01-07T15:00:25.641Z,-76
2023-01-07T15:02:52.186Z,-77
2023-01-07T15:05:18.798Z,-77
2023-01-07T15:07:45.271Z,-76
2023-01-07T15:10:11.743Z,-77
2023-01-07T15:12:38.229Z,-76
2023-01-07T15:15:04.722Z,-77
2023-01-07T15:17:31.188Z,-77
2023-01-07T15:19:57.659Z,-76
2023-01-07T15:22:24.114Z,-77
2023-01-07T15:24:50.600Z,-76
2023-01-07T15:27:17.187Z,-77
2023-01-07T15:29:43.672Z,-77
2023-01-07T15:32:10.153Z,-76
2023-01-07T15:34:36.631Z,-76
2023-01-07T15:37:03.135Z,-77
2023-01-07T15:39:29.605Z,-77
2023-01-07T15:41:56.070Z,-76
2023-01-07T15:44:22.549Z,-76
2023-01-07T15:46:49.045Z,-77
2023-01-07T15:49:15.594Z,-77
2023-01-07T15:51:42.054Z,-76
2023-01-07T15:54:08.594Z,-76
2023-01-07T15:56:35.092Z,-76
2023-01-07T15:59:01.580Z,-77
2023-01-07T16:01:28.208Z,-76
2023-01-07T16:03:54.818Z,-77
2023-01-07T16:06:21.302Z,-77
2023-01-07T16:08:47.790Z,-77
2023-01-07T16:11:14.272Z,-77
2023-01-07T16:13:40.755Z,-76
2023-01-07T16:16:07.268Z,-76
2023-01-07T16:18:33.784Z,-77
2023-01-07T16:21:05.285Z,-77
2023-01-07T16:23:31.754Z,-77
2023-01-07T16:25:58.246Z,-76
2023-01-07T16:28:24.723Z,-76
2023-01-07T16:30:51.212Z,-77
2023-01-07T16:33:17.698Z,-78
2023-01-07T16:35:44.134Z,-77
2023-01-07T16:38:11.245Z,-76
2023-01-07T16:40:37.734Z,-76
2023-01-07T16:43:04.194Z,-77
2023-01-07T16:45:30.699Z,-77
2023-01-07T16:47:57.177Z,-77
2023-01-07T16:50:23.674Z,-76
2023-01-07T16:52:50.141Z,-77
2023-01-07T16:55:16.611Z,-77
2023-01-07T16:57:43.083Z,-76
2023-01-07T17:00:09.577Z,-76
2023-01-07T17:02:36.054Z,-76
2023-01-07T17:05:02.528Z,-75
2023-01-07T17:07:28.993Z,-75
2023-01-07T17:09:55.459Z,-76
2023-01-07T17:12:22.041Z,-76
2023-01-07T17:14:48.666Z,-76
2023-01-07T17:17:15.170Z,-76
2023-01-07T17:19:41.649Z,-76
2023-01-07T17:22:08.133Z,-75
2023-01-07T17:24:34.616Z,-76
2023-01-07T17:27:01.072Z,-76
2023-01-07T17:29:27.521Z,-75
2023-01-07T17:31:54.054Z,-76
2023-01-07T17:34:20.565Z,-76
2023-01-07T17:36:47.041Z,-76
2023-01-07T17:39:13.515Z,-76
2023-01-07T17:41:40.011Z,-76
2023-01-07T17:44:06.478Z,-76
2023-01-07T17:46:32.955Z,-76
2023-01-07T17:48:59.434Z,-76
2023-01-07T17:51:29.347Z,-75
2023-01-07T17:53:55.841Z,-76
2023-01-07T17:56:22.319Z,-76
2023-01-07T17:58:48.773Z,-76
2023-01-07T18:01:15.415Z,-76
2023-01-07T18:03:41.993Z,-75
2023-01-07T18:06:08.470Z,-74
2023-01-07T18:08:34.954Z,-75
2023-01-07T18:11:01.436Z,-75
2023-01-07T18:13:27.887Z,-77
2023-01-07T18:15:54.361Z,-74
2023-01-07T18:18:20.856Z,-74
2023-01-07T18:20:47.499Z,-74
2023-01-07T18:23:14.012Z,-75
2023-01-07T18:25:40.496Z,-77
2023-01-07T18:28:06.973Z,-74
2023-01-07T18:30:33.466Z,-75
2023-01-07T18:32:59.937Z,-75
2023-01-07T18:35:26.418Z,-75
2023-01-07T18:37:52.920Z,-75
2023-01-07T18:40:19.421Z,-75
2023-01-07T18:42:45.903Z,-75
2023-01-07T18:45:12.362Z,-76
2023-01-07T18:47:38.835Z,-75
2023-01-07T18:50:05.313Z,-74
2023-01-07T18:52:31.782Z,-75
2023-01-07T18:54:58.267Z,-75
2023-01-07T18:57:24.752Z,-75
2023-01-07T18:59:53.414Z,-75
2023-01-07T19:02:19.923Z,-75
2023-01-07T19:04:46.384Z,-75
2023-01-07T19:07:12.889Z,-76
2023-01-07T19:09:41.349Z,-75
2023-01-07T19:12:07.822Z,-75
2023-01-07T19:14:34.299Z,-75
2023-01-07T19:17:00.763Z,-75
2023-01-07T19:19:27.433Z,-75
2023-01-07T19:21:53.960Z,-75
2023-01-07T19:24:20.438Z,-75
2023-01-07T19:26:46.916Z,-75
2023-01-07T19:29:14.152Z,-76
2023-01-07T19:31:40.683Z,-75
2023-01-07T19:34:07.180Z,-74
2023-01-07T19:36:33.778Z,-75
2023-01-07T19:39:00.261Z,-75
2023-01-07T19:41:26.760Z,-75
2023-01-07T19:43:53.264Z,-75
2023-01-07T19:46:19.810Z,-75
2023-01-07T19:48:46.281Z,-75
2023-01-07T19:51:12.796Z,-76
2023-01-07T19:53:39.249Z,-75
2023-01-07T19:56:05.711Z,-75
2023-01-07T19:58:32.186Z,-75
2023-01-07T20:00:58.786Z,-75
2023-01-07T20:03:25.338Z,-75
2023-01-07T20:05:51.796Z,-75
2023-01-07T20:08:18.261Z,-75
2023-01-07T20:10:44.741Z,-75
2023-01-07T20:13:11.456Z,-75
2023-01-07T20:15:37.932Z,-76
2023-01-07T20:18:04.426Z,-75
2023-01-07T20:20:30.920Z,-75
2023-01-07T20:22:57.386Z,-75
2023-01-07T20:25:23.871Z,-75
2023-01-07T20:27:50.365Z,-75
2023-01-07T20:30:16.859Z,-75
2023-01-07T20:32:43.328Z,-75
2023-01-07T20:35:09.804Z,-75
2023-01-07T20:37:36.286Z,-75
2023-01-07T20:40:02.779Z,-75
2023-01-07T20:42:29.284Z,-75
2023-01-07T20:44:55.896Z,-75
2023-01-07T20:47:22.379Z,-75
2023-01-07T20:49:48.835Z,-75
2023-01-07T20:52:15.342Z,-75
2023-01-07T20:54:41.819Z,-75
2023-01-07T20:57:08.302Z,-76
2023-01-07T20:59:34.774Z,-75
2023-01-07T21:02:01.447Z,-76
2023-01-07T21:04:28.044Z,-75
2023-01-07T21:06:54.508Z,-75
2023-01-07T21:09:20.986Z,-75
2023-01-07T21:11:47.477Z,-75
2023-01-07T21:14:13.938Z,-75
2023-01-07T21:16:40.460Z,-75
2023-01-07T21:19:07.010Z,-75
2023-01-07T21:21:33.459Z,-75
2023-01-07T21:23:59.930Z,-77
2023-01-07T21:26:26.460Z,-75
2023-01-07T21:28:52.944Z,-75
2023-01-07T21:31:19.475Z,-76
2023-01-07T21:33:45.962Z,-78
2023-01-07T21:36:12.431Z,-76
2023-01-07T21:38:38.918Z,-75
2023-01-07T21:41:05.401Z,-76
2023-01-07T21:43:31.876Z,-75
2023-01-07T21:45:58.392Z,-76
2023-01-07T21:48:29.545Z,-75
2023-01-07T21:50:56.014Z,-77
2023-01-07T21:53:23.536Z,-75
2023-01-07T21:55:59.569Z,-76
2023-01-07T21:58:26.052Z,-76
2023-01-07T22:00:52.681Z,-76
2023-01-07T22:03:19.224Z,-75
2023-01-07T22:05:45.694Z,-75
2023-01-07T22:08:12.181Z,-75
2023-01-07T22:10:38.642Z,-76
2023-01-07T22:13:05.156Z,-75
2023-01-07T22:15:31.624Z,-75
2023-01-07T22:17:58.116Z,-75
2023-01-07T22:20:24.606Z,-75
2023-01-07T22:22:51.092Z,-75
2023-01-07T22:25:17.570Z,-75
2023-01-07T22:27:44.054Z,-75
2023-01-07T22:30:10.531Z,-75
2023-01-07T22:32:37.110Z,-75
2023-01-07T22:35:03.578Z,-75
2023-01-07T22:37:35.763Z,-75
2023-01-07T22:40:02.251Z,-75
2023-01-07T22:42:28.783Z,-76
2023-01-07T22:44:55.263Z,-76
2023-01-07T22:47:21.754Z,-75
2023-01-07T22:49:48.229Z,-75
2023-01-07T22:52:14.720Z,-75
2023-01-07T22:54:41.205Z,-75
2023-01-07T22:57:07.682Z,-75
2023-01-07T22:59:34.156Z,-75
2023-01-07T23:02:00.617Z,-77
2023-01-07T23:04:27.144Z,-77
2023-01-07T23:06:53.650Z,-76
2023-01-07T23:09:20.118Z,-76
2023-01-07T23:11:46.620Z,-77
2023-01-07T23:14:13.121Z,-77
2023-01-07T23:16:39.631Z,-76
2023-01-07T23:19:06.148Z,-76
2023-01-07T23:21:32.617Z,-76
2023-01-07T23:23:59.113Z,-77
2023-01-07T23:26:25.582Z,-77
2023-01-07T23:28:52.088Z,-77
2023-01-07T23:31:18.619Z,-77
2023-01-07T23:33:45.108Z,-77
2023-01-07T23:36:11.591Z,-77
2023-01-07T23:38:38.077Z,-75
2023-01-07T23:41:04.558Z,-76
2023-01-07T23:43:31.023Z,-76
2023-01-07T23:45:57.563Z,-76
2023-01-07T23:48:23.992Z,-76
2023-01-07T23:50:50.487Z,-77
2023-01-07T23:53:16.953Z,-77
2023-01-07T23:55:43.428Z,-76
2023-01-07T23:58:09.891Z,-76
